createdAt,value
2017-08-24T00:00:07.283Z,7.80
2017-08-24T00:02:34.712Z,8.00
2017-08-24T00:05:02.182Z,8.50
2017-08-24T00:07:29.601Z,8.00
2017-08-24T00:09:57.185Z,8.30
2017-08-24T00:12:24.617Z,8.50
2017-08-24T00:14:52.053Z,17.10
2017-08-24T00:17:19.484Z,12.20
2017-08-24T00:19:46.929Z,10.10
2017-08-24T00:22:14.474Z,8.40
2017-08-24T00:24:42.103Z,8.60
2017-08-24T00:27:09.584Z,9.43
2017-08-24T00:29:37.150Z,6.07
2017-08-24T00:32:04.912Z,9.17
2017-08-24T00:34:32.544Z,7.93
2017-08-24T00:37:00.019Z,13.00
2017-08-24T00:39:27.464Z,9.77
2017-08-24T00:41:55.013Z,9.03
2017-08-24T00:44:22.457Z,8.37
2017-08-24T00:46:49.876Z,10.17
2017-08-24T00:49:17.313Z,8.57
2017-08-24T00:51:44.797Z,8.70
2017-08-24T00:54:12.226Z,8.03
2017-08-24T00:56:39.789Z,8.40
2017-08-24T00:59:07.238Z,8.70
2017-08-24T01:01:34.698Z,9.20
2017-08-24T01:04:02.347Z,9.50
2017-08-24T01:06:29.932Z,7.43
2017-08-24T01:08:57.356Z,8.47
2017-08-24T01:11:24.844Z,8.23
2017-08-24T01:13:52.282Z,8.10
2017-08-24T01:16:19.728Z,8.17
2017-08-24T01:18:47.198Z,8.00
2017-08-24T01:21:14.655Z,8.67
2017-08-24T01:23:42.096Z,7.83
2017-08-24T01:26:09.567Z,8.90
2017-08-24T01:28:37.012Z,7.93
2017-08-24T01:31:04.475Z,8.30
2017-08-24T01:33:31.935Z,10.10
2017-08-24T01:35:59.387Z,8.00
2017-08-24T01:38:26.843Z,9.13
2017-08-24T01:40:54.273Z,8.53
2017-08-24T01:43:21.755Z,9.27
2017-08-24T01:45:49.389Z,10.53
2017-08-24T01:48:16.868Z,8.83
2017-08-24T01:50:44.436Z,8.90
2017-08-24T01:53:11.866Z,8.30
2017-08-24T01:55:39.341Z,8.87
2017-08-24T01:58:06.792Z,8.30
2017-08-24T02:00:34.252Z,8.67
2017-08-24T02:03:01.668Z,8.67
2017-08-24T02:05:29.103Z,9.10
2017-08-24T02:07:56.628Z,10.20
2017-08-24T02:10:24.108Z,9.90
2017-08-24T02:12:51.713Z,8.57
2017-08-24T02:15:19.200Z,8.10
2017-08-24T02:17:46.746Z,8.53
2017-08-24T02:20:14.211Z,9.73
2017-08-24T02:22:41.667Z,8.73
2017-08-24T02:25:09.127Z,7.87
2017-08-24T02:27:36.549Z,8.30
2017-08-24T02:30:04.041Z,8.03
2017-08-24T02:32:31.466Z,8.27
2017-08-24T02:34:58.886Z,8.13
2017-08-24T02:37:26.405Z,7.50
2017-08-24T02:39:53.861Z,8.50
2017-08-24T02:42:21.286Z,9.03
2017-08-24T02:44:48.777Z,11.20
2017-08-24T02:47:16.547Z,9.03
2017-08-24T02:49:43.973Z,10.20
2017-08-24T02:52:11.414Z,9.63
2017-08-24T02:54:38.834Z,8.23
2017-08-24T02:57:06.282Z,9.87
2017-08-24T02:59:33.812Z,9.20
2017-08-24T03:02:01.580Z,8.63
2017-08-24T03:04:29.000Z,9.00
2017-08-24T03:06:56.713Z,9.87
2017-08-24T03:09:24.262Z,10.07
2017-08-24T03:11:52.023Z,10.57
2017-08-24T03:14:19.476Z,9.97
2017-08-24T03:16:46.913Z,10.67
2017-08-24T03:19:14.332Z,10.67
2017-08-24T03:21:41.847Z,10.47
2017-08-24T03:24:09.508Z,9.90
2017-08-24T03:26:36.977Z,9.87
2017-08-24T03:29:04.410Z,10.00
2017-08-24T03:31:31.978Z,9.60
2017-08-24T03:33:59.615Z,10.50
2017-08-24T03:36:27.113Z,10.67
2017-08-24T03:38:54.573Z,10.73
2017-08-24T03:41:22.025Z,10.40
2017-08-24T03:43:49.461Z,11.63
2017-08-24T03:46:17.025Z,10.70
2017-08-24T03:48:44.479Z,10.57
2017-08-24T03:51:11.938Z,15.37
2017-08-24T03:53:39.382Z,11.27
2017-08-24T03:56:06.808Z,18.00
2017-08-24T03:58:34.311Z,12.57
2017-08-24T04:01:01.761Z,10.03
2017-08-24T04:03:29.215Z,10.53
2017-08-24T04:05:56.988Z,11.70
2017-08-24T04:08:24.745Z,11.03
2017-08-24T04:10:52.201Z,11.67
2017-08-24T04:13:19.965Z,10.27
2017-08-24T04:15:47.604Z,12.10
2017-08-24T04:18:15.181Z,11.60
2017-08-24T04:20:42.610Z,12.90
2017-08-24T04:23:10.100Z,9.80
2017-08-24T04:25:37.912Z,11.40
2017-08-24T04:28:05.496Z,10.77
2017-08-24T04:30:33.068Z,11.10
2017-08-24T04:33:00.516Z,12.03
2017-08-24T04:35:27.995Z,11.87
2017-08-24T04:37:55.437Z,11.03
2017-08-24T04:40:22.905Z,11.60
2017-08-24T04:42:50.677Z,11.20
2017-08-24T04:45:18.119Z,9.37
2017-08-24T04:47:45.880Z,11.80
2017-08-24T04:50:13.312Z,14.83
2017-08-24T04:52:40.798Z,11.27
2017-08-24T04:55:08.278Z,12.60
2017-08-24T04:57:36.011Z,12.57
2017-08-24T05:00:03.457Z,13.77
2017-08-24T05:02:30.937Z,12.60
2017-08-24T05:04:58.369Z,12.23
2017-08-24T05:07:25.818Z,12.93
2017-08-24T05:09:53.351Z,12.37
2017-08-24T05:12:20.961Z,15.30
2017-08-24T05:14:48.520Z,13.43
2017-08-24T05:17:16.153Z,12.93
2017-08-24T05:19:43.741Z,13.87
2017-08-24T05:22:11.177Z,15.70
2017-08-24T05:24:38.657Z,14.30
2017-08-24T05:27:06.078Z,16.13
2017-08-24T05:29:33.510Z,16.10
2017-08-24T05:32:01.016Z,15.90
2017-08-24T05:34:28.786Z,14.27
2017-08-24T05:36:56.416Z,15.87
2017-08-24T05:39:23.844Z,14.40
2017-08-24T05:41:51.464Z,15.17
2017-08-24T05:44:18.918Z,14.33
2017-08-24T05:46:46.558Z,15.23
2017-08-24T05:49:14.026Z,13.53
2017-08-24T05:51:41.457Z,14.87
2017-08-24T05:54:08.973Z,15.00
2017-08-24T05:56:36.408Z,13.30
2017-08-24T05:59:03.876Z,13.10
2017-08-24T06:01:31.329Z,12.17
2017-08-24T06:03:58.877Z,15.77
2017-08-24T06:06:26.304Z,13.07
2017-08-24T06:08:53.757Z,12.10
2017-08-24T06:11:21.185Z,11.40
2017-08-24T06:13:48.636Z,11.70
2017-08-24T06:16:16.157Z,11.30
2017-08-24T06:18:43.916Z,8.97
2017-08-24T06:21:11.351Z,11.03
2017-08-24T06:23:38.783Z,7.60
2017-08-24T06:26:06.203Z,7.73
2017-08-24T06:28:33.644Z,8.60
2017-08-24T06:31:01.088Z,8.13
2017-08-24T06:33:28.654Z,8.83
2017-08-24T06:35:56.091Z,6.70
2017-08-24T06:38:23.564Z,8.97
2017-08-24T06:40:51.017Z,7.67
2017-08-24T06:43:18.489Z,7.33
2017-08-24T06:45:45.950Z,11.73
2017-08-24T06:48:13.712Z,7.17
2017-08-24T06:50:41.135Z,7.83
2017-08-24T06:53:08.608Z,6.87
2017-08-24T06:55:36.264Z,7.47
2017-08-24T06:58:03.835Z,6.73
2017-08-24T07:00:31.293Z,5.80
2017-08-24T07:02:58.726Z,6.40
2017-08-24T07:05:26.157Z,7.07
2017-08-24T07:07:53.653Z,5.90
2017-08-24T07:10:21.115Z,7.43
2017-08-24T07:12:48.552Z,6.10
2017-08-24T07:15:16.025Z,5.73
2017-08-24T07:17:43.472Z,7.67
2017-08-24T07:20:10.909Z,6.43
2017-08-24T07:22:38.332Z,6.43
2017-08-24T07:25:05.759Z,6.57
2017-08-24T07:27:33.305Z,7.80
2017-08-24T07:30:01.248Z,8.23
2017-08-24T07:32:28.833Z,6.90
2017-08-24T07:34:56.288Z,6.13
2017-08-24T07:37:24.053Z,6.00
2017-08-24T07:39:51.507Z,5.20
2017-08-24T07:42:18.930Z,8.73
2017-08-24T07:44:46.370Z,7.07
2017-08-24T07:47:13.801Z,5.83
2017-08-24T07:49:41.253Z,5.70
2017-08-24T07:52:08.696Z,5.40
2017-08-24T07:54:36.253Z,5.03
2017-08-24T07:57:03.685Z,4.83
2017-08-24T07:59:31.460Z,6.70
2017-08-24T08:01:58.909Z,4.60
2017-08-24T08:04:26.333Z,4.70
2017-08-24T08:06:53.826Z,3.83
2017-08-24T08:09:21.294Z,4.27
2017-08-24T08:11:48.738Z,4.53
2017-08-24T08:14:16.209Z,3.60
2017-08-24T08:16:43.657Z,3.53
2017-08-24T08:19:11.072Z,4.93
2017-08-24T08:21:38.511Z,4.43
2017-08-24T08:24:05.932Z,4.10
2017-08-24T08:26:33.484Z,3.60
2017-08-24T08:29:01.141Z,8.23
2017-08-24T08:31:28.701Z,4.00
2017-08-24T08:33:56.157Z,3.77
2017-08-24T08:36:23.620Z,4.53
2017-08-24T08:38:51.045Z,3.50
2017-08-24T08:41:18.517Z,3.50
2017-08-24T08:43:45.941Z,4.83
2017-08-24T08:46:13.368Z,3.77
2017-08-24T08:48:40.801Z,3.70
2017-08-24T08:51:08.356Z,4.13
2017-08-24T08:53:36.005Z,3.80
2017-08-24T08:56:03.491Z,3.60
2017-08-24T08:58:30.930Z,3.10
2017-08-24T09:00:58.489Z,3.20
2017-08-24T09:03:25.917Z,8.80
2017-08-24T09:05:53.342Z,5.10
2017-08-24T09:08:20.883Z,3.20
2017-08-24T09:10:48.490Z,4.93
2017-08-24T09:13:16.073Z,3.50
2017-08-24T09:15:43.534Z,5.53
2017-08-24T09:18:11.296Z,2.90
2017-08-24T09:20:38.739Z,2.97
2017-08-24T09:23:06.217Z,3.37
2017-08-24T09:25:33.837Z,3.47
2017-08-24T09:28:01.302Z,2.63
2017-08-24T09:30:28.784Z,2.87
2017-08-24T09:32:56.338Z,2.73
2017-08-24T09:35:23.759Z,3.43
2017-08-24T09:37:51.261Z,2.70
2017-08-24T09:40:18.713Z,2.73
2017-08-24T09:42:46.465Z,3.00
2017-08-24T09:45:13.901Z,2.47
2017-08-24T09:47:41.380Z,3.10
2017-08-24T09:50:08.817Z,3.90
2017-08-24T09:52:36.297Z,2.97
2017-08-24T09:55:03.749Z,3.07
2017-08-24T09:57:31.164Z,2.57
2017-08-24T09:59:58.663Z,2.50
2017-08-24T10:02:26.084Z,2.70
2017-08-24T10:04:53.533Z,2.70
2017-08-24T10:07:20.957Z,2.50
2017-08-24T10:09:48.379Z,4.87
2017-08-24T10:12:15.812Z,4.93
2017-08-24T10:14:43.345Z,3.30
2017-08-24T10:17:10.759Z,2.20
2017-08-24T10:19:38.187Z,2.90
2017-08-24T10:22:05.774Z,2.23
2017-08-24T10:24:33.241Z,2.90
2017-08-24T10:27:00.868Z,2.43
2017-08-24T10:29:28.509Z,2.73
2017-08-24T10:31:55.899Z,2.10
2017-08-24T10:34:23.353Z,2.40
2017-08-24T10:36:50.797Z,2.90
2017-08-24T10:39:18.277Z,1.57
2017-08-24T10:41:45.908Z,3.07
2017-08-24T10:44:13.323Z,2.30
2017-08-24T10:46:40.861Z,2.63
2017-08-24T10:49:08.287Z,4.40
2017-08-24T10:51:35.865Z,2.07
2017-08-24T10:54:03.511Z,3.37
2017-08-24T10:56:31.079Z,2.90
2017-08-24T10:58:58.533Z,2.43
2017-08-24T11:01:26.004Z,2.77
2017-08-24T11:03:53.389Z,2.47
2017-08-24T11:06:20.906Z,2.57
2017-08-24T11:08:48.360Z,2.60
2017-08-24T11:11:15.772Z,2.40
2017-08-24T11:13:43.263Z,2.57
2017-08-24T11:16:10.732Z,4.13
2017-08-24T11:18:38.176Z,3.97
2017-08-24T11:21:05.604Z,2.27
2017-08-24T11:23:33.027Z,2.17
2017-08-24T11:26:00.449Z,2.67
2017-08-24T11:28:28.018Z,2.43
2017-08-24T11:30:55.469Z,2.27
2017-08-24T11:33:23.002Z,2.43
2017-08-24T11:35:50.684Z,4.10
2017-08-24T11:38:18.114Z,2.37
2017-08-24T11:40:45.597Z,2.57
2017-08-24T11:43:13.004Z,4.30
2017-08-24T11:45:40.497Z,3.80
2017-08-24T11:48:07.921Z,3.60
2017-08-24T11:50:35.433Z,1.87
2017-08-24T11:53:02.888Z,1.97
2017-08-24T11:55:30.322Z,1.73
2017-08-24T11:57:57.736Z,1.60
2017-08-24T12:00:25.252Z,2.00
2017-08-24T12:02:52.675Z,1.70
2017-08-24T12:05:20.096Z,1.97
2017-08-24T12:07:47.623Z,2.10
2017-08-24T12:10:15.391Z,2.73
2017-08-24T12:12:42.812Z,1.77
2017-08-24T12:15:10.294Z,3.20
2017-08-24T12:17:37.712Z,2.13
2017-08-24T12:20:05.138Z,1.40
2017-08-24T12:22:32.665Z,4.20
2017-08-24T12:25:00.101Z,1.90
2017-08-24T12:27:27.578Z,2.00
2017-08-24T12:29:55.030Z,1.90
2017-08-24T12:32:22.485Z,1.80
2017-08-24T12:34:49.948Z,3.13
2017-08-24T12:37:17.405Z,1.97
2017-08-24T12:39:45.033Z,2.10
2017-08-24T12:42:12.626Z,1.90
2017-08-24T12:44:40.253Z,2.20
2017-08-24T12:47:07.743Z,2.63
2017-08-24T12:49:35.174Z,2.57
2017-08-24T12:52:02.751Z,1.60
2017-08-24T12:54:30.167Z,2.70
2017-08-24T12:56:57.661Z,2.50
2017-08-24T12:59:25.080Z,1.70
2017-08-24T13:01:52.581Z,1.60
2017-08-24T13:04:20.157Z,1.60
2017-08-24T13:06:47.787Z,2.90
2017-08-24T13:09:15.221Z,1.50
2017-08-24T13:11:42.709Z,2.03
2017-08-24T13:14:10.168Z,4.63
2017-08-24T13:16:37.742Z,1.80
2017-08-24T13:19:05.297Z,1.60
2017-08-24T13:21:32.837Z,3.20
2017-08-24T13:24:00.269Z,2.37
2017-08-24T13:26:27.689Z,2.60
2017-08-24T13:28:55.218Z,2.60
2017-08-24T13:31:22.846Z,2.50
2017-08-24T13:33:50.356Z,2.90
2017-08-24T13:36:17.881Z,2.40
2017-08-24T13:38:45.341Z,2.77
2017-08-24T13:41:12.776Z,2.50
2017-08-24T13:43:40.280Z,4.13
2017-08-24T13:46:07.708Z,3.13
2017-08-24T13:48:35.142Z,2.17
2017-08-24T13:51:02.618Z,3.13
2017-08-24T13:53:30.034Z,2.70
2017-08-24T13:55:57.537Z,2.23
2017-08-24T13:58:24.990Z,2.67
2017-08-24T14:00:52.427Z,2.20
2017-08-24T14:03:19.893Z,2.57
2017-08-24T14:05:47.357Z,3.20
2017-08-24T14:08:14.776Z,1.87
2017-08-24T14:10:42.216Z,2.30
2017-08-24T14:13:09.726Z,2.23
2017-08-24T14:15:37.152Z,2.37
2017-08-24T14:18:04.641Z,2.10
2017-08-24T14:20:32.063Z,2.47
2017-08-24T14:22:59.480Z,2.50
2017-08-24T14:25:26.917Z,2.80
2017-08-24T14:27:54.466Z,1.77
2017-08-24T14:30:22.229Z,1.93
2017-08-24T14:32:49.671Z,2.03
2017-08-24T14:35:17.076Z,1.80
2017-08-24T14:37:45.518Z,2.47
2017-08-24T14:40:12.974Z,2.67
2017-08-24T14:42:40.408Z,2.30
2017-08-24T14:45:07.817Z,2.87
2017-08-24T14:47:35.345Z,2.10
2017-08-24T14:50:02.751Z,2.10
2017-08-24T14:52:30.255Z,2.77
2017-08-24T14:54:57.714Z,3.10
2017-08-24T14:57:25.185Z,2.10
2017-08-24T14:59:52.700Z,2.43
2017-08-24T15:02:20.291Z,2.30
2017-08-24T15:04:47.853Z,2.10
2017-08-24T15:07:15.289Z,2.80
2017-08-24T15:09:42.700Z,2.70
2017-08-24T15:12:10.217Z,2.20
2017-08-24T15:14:37.672Z,2.37
2017-08-24T15:17:05.150Z,3.20
2017-08-24T15:19:32.593Z,4.43
2017-08-24T15:22:00.358Z,5.17
2017-08-24T15:24:28.112Z,2.50
2017-08-24T15:26:55.533Z,3.13
2017-08-24T15:29:23.021Z,4.07
2017-08-24T15:31:50.455Z,2.90
2017-08-24T15:34:17.901Z,2.80
2017-08-24T15:36:45.316Z,3.23
2017-08-24T15:39:12.853Z,2.83
2017-08-24T15:41:40.295Z,3.23
2017-08-24T15:44:08.461Z,3.47
2017-08-24T15:46:35.880Z,2.80
2017-08-24T15:49:03.503Z,1.97
2017-08-24T15:51:30.955Z,2.20
2017-08-24T15:53:58.500Z,2.00
2017-08-24T15:56:25.912Z,2.37
2017-08-24T15:58:53.413Z,2.33
2017-08-24T16:01:20.840Z,2.60
2017-08-24T16:03:48.260Z,3.43
2017-08-24T16:06:15.690Z,2.33
2017-08-24T16:08:43.232Z,2.40
2017-08-24T16:11:10.669Z,2.17
2017-08-24T16:13:38.400Z,2.40
2017-08-24T16:16:05.813Z,4.47
2017-08-24T16:18:33.319Z,2.20
2017-08-24T16:21:00.729Z,1.87
2017-08-24T16:23:28.285Z,3.30
2017-08-24T16:26:01.439Z,4.80
2017-08-24T16:28:34.984Z,4.20
2017-08-24T16:31:02.638Z,3.10
2017-08-24T16:33:30.057Z,3.20
2017-08-24T16:35:57.494Z,4.03
2017-08-24T16:38:24.913Z,3.10
2017-08-24T16:40:52.461Z,4.00
2017-08-24T16:43:19.916Z,3.60
2017-08-24T16:45:47.382Z,5.47
2017-08-24T16:48:14.833Z,4.33
2017-08-24T16:50:42.379Z,4.07
2017-08-24T16:53:10.053Z,2.80
2017-08-24T16:55:37.818Z,3.23
2017-08-24T16:58:05.249Z,4.63
2017-08-24T17:00:32.664Z,3.13
2017-08-24T17:03:00.084Z,2.93
2017-08-24T17:05:27.509Z,3.37
2017-08-24T17:07:54.934Z,8.80
2017-08-24T17:10:22.421Z,4.63
2017-08-24T17:12:49.882Z,4.00
2017-08-24T17:15:17.310Z,2.97
2017-08-24T17:17:44.736Z,2.57
2017-08-24T17:20:12.157Z,3.20
2017-08-24T17:22:39.589Z,4.27
2017-08-24T17:25:07.005Z,4.70
2017-08-24T17:27:34.436Z,3.43
2017-08-24T17:30:01.861Z,4.27
2017-08-24T17:32:29.281Z,4.30
2017-08-24T17:34:56.705Z,9.83
2017-08-24T17:37:24.122Z,4.60
2017-08-24T17:39:51.544Z,4.03
2017-08-24T17:42:19.077Z,3.53
2017-08-24T17:44:46.500Z,4.80
2017-08-24T17:47:13.929Z,4.70
2017-08-24T17:49:41.357Z,9.27
2017-08-24T17:52:08.793Z,5.60
2017-08-24T17:54:36.293Z,5.47
2017-08-24T17:57:03.701Z,2.90
2017-08-24T17:59:31.145Z,2.67
2017-08-24T18:01:58.616Z,2.90
2017-08-24T18:04:26.021Z,2.17
2017-08-24T18:06:53.436Z,3.30
2017-08-24T18:09:21.236Z,4.10
2017-08-24T18:11:48.828Z,5.00
2017-08-24T18:14:16.316Z,2.93
2017-08-24T18:16:43.868Z,5.63
2017-08-24T18:19:11.328Z,3.10
2017-08-24T18:21:38.964Z,2.60
2017-08-24T18:24:06.470Z,3.60
2017-08-24T18:26:34.007Z,6.50
2017-08-24T18:29:01.424Z,2.77
2017-08-24T18:31:28.916Z,5.90
2017-08-24T18:33:56.365Z,2.53
2017-08-24T18:36:23.793Z,3.93
2017-08-24T18:38:51.278Z,7.37
2017-08-24T18:41:18.705Z,5.70
2017-08-24T18:43:46.150Z,6.00
2017-08-24T18:46:13.645Z,3.80
2017-08-24T18:48:41.080Z,2.73
2017-08-24T18:51:08.501Z,5.03
2017-08-24T18:53:35.958Z,4.63
2017-08-24T18:56:03.482Z,3.33
2017-08-24T18:58:31.108Z,7.23
2017-08-24T19:00:58.609Z,3.70
2017-08-24T19:03:26.144Z,4.40
2017-08-24T19:05:53.581Z,4.00
2017-08-24T19:08:21.028Z,2.67
2017-08-24T19:10:48.463Z,5.10
2017-08-24T19:13:15.897Z,3.93
2017-08-24T19:15:43.343Z,4.80
2017-08-24T19:18:10.912Z,4.77
2017-08-24T19:20:38.527Z,3.10
2017-08-24T19:23:06.017Z,2.90
2017-08-24T19:25:33.563Z,2.80
2017-08-24T19:28:00.984Z,5.80
2017-08-24T19:30:28.837Z,3.60
2017-08-24T19:32:56.420Z,3.93
2017-08-24T19:35:24.001Z,3.80
2017-08-24T19:37:51.433Z,3.67
2017-08-24T19:40:18.917Z,4.90
2017-08-24T19:42:46.549Z,2.93
2017-08-24T19:45:14.095Z,3.53
2017-08-24T19:47:41.593Z,2.87
2017-08-24T19:50:09.028Z,4.13
2017-08-24T19:52:36.464Z,5.50
2017-08-24T19:55:03.987Z,2.87
2017-08-24T19:57:31.584Z,3.70
2017-08-24T19:59:59.089Z,4.33
2017-08-24T20:02:26.642Z,2.80
2017-08-24T20:04:54.407Z,5.20
2017-08-24T20:07:21.863Z,3.80
2017-08-24T20:09:49.510Z,3.57
2017-08-24T20:12:17.073Z,6.87
2017-08-24T20:14:44.501Z,7.60
2017-08-24T20:17:11.985Z,5.27
2017-08-24T20:19:39.413Z,5.43
2017-08-24T20:22:06.841Z,5.80
2017-08-24T20:24:34.357Z,4.27
2017-08-24T20:27:01.811Z,4.40
2017-08-24T20:29:29.272Z,2.90
2017-08-24T20:31:56.725Z,3.70
2017-08-24T20:34:24.153Z,3.00
2017-08-24T20:36:51.616Z,5.33
2017-08-24T20:39:19.088Z,3.37
2017-08-24T20:41:46.527Z,3.50
2017-08-24T20:44:13.949Z,3.13
2017-08-24T20:46:41.469Z,3.07
2017-08-24T20:49:08.919Z,4.67
2017-08-24T20:51:36.357Z,7.13
2017-08-24T20:54:03.788Z,3.70
2017-08-24T20:56:31.222Z,3.40
2017-08-24T20:58:58.753Z,5.10
2017-08-24T21:01:26.198Z,3.00
2017-08-24T21:03:53.620Z,3.53
2017-08-24T21:06:21.108Z,3.80
2017-08-24T21:08:48.539Z,3.20
2017-08-24T21:11:15.970Z,2.13
2017-08-24T21:13:43.477Z,2.67
2017-08-24T21:16:10.929Z,3.50
2017-08-24T21:18:38.364Z,3.50
2017-08-24T21:21:05.849Z,2.97
2017-08-24T21:23:33.277Z,4.50
2017-08-24T21:26:00.765Z,3.30
2017-08-24T21:28:28.524Z,4.93
2017-08-24T21:30:55.953Z,2.77
2017-08-24T21:33:23.433Z,4.33
2017-08-24T21:35:50.873Z,4.60
2017-08-24T21:38:18.368Z,6.70
2017-08-24T21:40:46.117Z,2.50
2017-08-24T21:43:13.545Z,3.00
2017-08-24T21:45:40.997Z,3.63
2017-08-24T21:48:08.421Z,2.67
2017-08-24T21:50:35.950Z,2.63
2017-08-24T21:53:03.404Z,4.70
2017-08-24T21:55:31.034Z,2.43
2017-08-24T21:57:58.612Z,4.30
2017-08-24T22:00:26.077Z,4.40
2017-08-24T22:02:53.700Z,4.40
2017-08-24T22:05:21.194Z,3.40
2017-08-24T22:07:48.754Z,3.97
2017-08-24T22:10:16.200Z,3.57
2017-08-24T22:12:43.651Z,3.70
2017-08-24T22:15:11.077Z,2.87
2017-08-24T22:17:38.576Z,3.60
2017-08-24T22:20:06.357Z,6.23
2017-08-24T22:22:33.795Z,4.40
2017-08-24T22:25:01.264Z,3.23
2017-08-24T22:27:28.690Z,2.90
2017-08-24T22:29:56.121Z,2.80
2017-08-24T22:32:23.625Z,2.90
2017-08-24T22:34:51.077Z,4.50
2017-08-24T22:37:18.537Z,3.50
2017-08-24T22:39:45.990Z,2.20
2017-08-24T22:42:13.442Z,3.80
2017-08-24T22:44:40.898Z,2.60
2017-08-24T22:47:08.360Z,5.53
2017-08-24T22:49:36.124Z,2.70
2017-08-24T22:52:03.761Z,3.30
2017-08-24T22:54:37.028Z,5.53
2017-08-24T22:57:10.172Z,5.93
2017-08-24T22:59:43.332Z,3.57
2017-08-24T23:02:16.321Z,2.83
2017-08-24T23:04:43.796Z,4.40
2017-08-24T23:07:11.273Z,2.43
2017-08-24T23:09:38.725Z,3.50
2017-08-24T23:12:06.274Z,3.27
2017-08-24T23:14:33.697Z,3.50
2017-08-24T23:17:01.124Z,5.80
2017-08-24T23:19:28.558Z,3.60
2017-08-24T23:21:56.088Z,4.77
2017-08-24T23:24:23.509Z,3.50
2017-08-24T23:26:51.004Z,3.20
2017-08-24T23:29:18.636Z,4.53
2017-08-24T23:31:46.092Z,3.30
2017-08-24T23:34:13.876Z,4.83
2017-08-24T23:36:41.371Z,3.80
2017-08-24T23:39:08.814Z,3.57
2017-08-24T23:41:36.353Z,4.10
2017-08-24T23:44:04.115Z,3.43
2017-08-24T23:46:31.540Z,2.63
2017-08-24T23:48:58.972Z,4.20
2017-08-24T23:51:26.493Z,3.57
2017-08-24T23:53:54.244Z,5.17
2017-08-24T23:56:21.680Z,6.57
2017-08-24T23:58:49.173Z,4.80
